EGPH/EDI METAR and TAF weather

Enter ICAO airport designator
Station Type Date Time Source
EGPH METAR 2018/09/21 23:20 UTC NOAA

EGPH 212320Z 25014KT CAVOK 08/05 Q1009


Station Type Date Time Source
EGPH Decoded METAR 2018/09/21 23:20 UTC NOAA

Edinburgh Airport, United Kingdom (EGPH) 55-57N 003-21W 0M
Sep 21, 2018 - 07:20 PM EDT / 2018.09.21 2320 UTC
Wind: from the WSW (250 degrees) at 16 MPH (14 KT):0
Visibility: greater than 7 mile(s):0
Temperature: 46 F (8 C)
Dew Point: 41 F (5 C)
Relative Humidity: 81%
Pressure (altimeter): 29.80 in. Hg (1009 hPa)
ob: EGPH 212320Z 25014KT CAVOK 08/05 Q1009
cycle: 23

Station Type Date Time Source
EGPH TAF 2018/09/21 18:15 UTC NOAA

TAF EGPH 211656Z 2118/2218 27010KT 9999 SCT030
TEMPO 2118/2210 28018G28KT PROB30
TEMPO 2118/2204 7000 SHRA


Example: see airport list